KGRB/GRB METAR and TAF weather

Enter ICAO airport designator
Station Type Date Time Source
KGRB METAR 2019/10/15 21:16 UTC NOAA

KGRB 152116Z 25005KT 10SM BKN029 OVC040 11/09 A2966 RMK AO2 T01110089


Station Type Date Time Source
KGRB Decoded METAR 2019/10/15 21:16 UTC NOAA

AUSTIN STRAUBEL INTERNATIONAL AIRPORT , WI, United States (KGRB) 44-29N 088-08W 205M
Oct 15, 2019 - 05:16 PM EDT / 2019.10.15 2116 UTC
Wind: from the WSW (250 degrees) at 6 MPH (5 KT):0
Visibility: 10 mile(s):0
Sky conditions: overcast
Temperature: 52.0 F (11.1 C)
Dew Point: 48.0 F (8.9 C)
Relative Humidity: 86%
Pressure (altimeter): 29.66 in. Hg (1004 hPa)
ob: KGRB 152116Z 25005KT 10SM BKN029 OVC040 11/09 A2966 RMK AO2 T01110089
cycle: 21

Station Type Date Time Source
KGRB TAF 2019/10/15 18:39 UTC NOAA

TAF KGRB 151735Z 1518/1618 19008G18KT P6SM VCSH OVC045
TEMPO 1519/1521 3SM -TSRA BKN025CB
FM152100 22010G16KT P6SM VCSH BKN024
TEMPO 1521/1524 3SM SHRA BKN015
FM160000 28009G15KT P6SM VCSH OVC015
TEMPO 1600/1604 3SM -SHRA
FM160400 32015G25KT 4SM -SHRA OVC015
FM160900 33020G33KT P6SM VCSH OVC022

Example: see airport list